Time;durP1;ratioP1;P1;durP2;ratioP2;P2;SDS_P1;SDS_P2;PMS_P1;PMS_P2;Temp;Humidity;BMP_temperature;BMP_pressure;BME280_temperature;BME280_humidity;BME280_pressure;Samples;Min_cycle;Max_cycle;Signal;HPM_P1;HPM_P2
2023/08/21 00:01:19;;;;;;;;;;;25.90;99.90;;;;;;5095627;28;19918;-70
2023/08/21 00:03:45;;;;;;;;;;;25.80;99.90;;;;;;5114360;28;19908;-70
2023/08/21 00:06:11;;;;;;;;;;;25.90;99.90;;;;;;5113967;28;19907;-71
2023/08/21 00:08:37;;;;;;;;;;;25.90;99.90;;;;;;5113950;28;19930;-71
2023/08/21 00:11:02;;;;;;;;;;;25.90;99.90;;;;;;5114446;28;19908;-70
2023/08/21 00:13:28;;;;;;;;;;;25.90;99.90;;;;;;5095571;28;19931;-71
2023/08/21 00:15:55;;;;;;;;;;;25.90;99.90;;;;;;5113621;28;19923;-70
2023/08/21 00:18:21;;;;;;;;;;;25.80;99.90;;;;;;5114106;28;20335;-70
2023/08/21 00:20:47;;;;;;;;;;;25.80;99.90;;;;;;5114252;28;20267;-69
2023/08/21 00:23:13;;;;;;;;;;;25.80;99.90;;;;;;5113698;28;19907;-70
2023/08/21 00:25:38;;;;;;;;;;;25.80;99.90;;;;;;5113665;28;19998;-70
2023/08/21 00:28:04;;;;;;;;;;;25.80;99.90;;;;;;5114252;28;19992;-69
2023/08/21 00:30:31;;;;;;;;;;;25.90;99.90;;;;;;5113594;28;19914;-70
2023/08/21 00:32:57;;;;;;;;;;;25.90;99.90;;;;;;5095397;28;19908;-69
2023/08/21 00:35:23;;;;;;;;;;;25.80;99.90;;;;;;5113546;28;20283;-70
2023/08/21 00:37:49;;;;;;;;;;;25.90;99.90;;;;;;5113943;28;19915;-70
2023/08/21 00:40:15;;;;;;;;;;;25.90;99.90;;;;;;5113944;28;19915;-70
2023/08/21 00:42:41;;;;;;;;;;;25.90;99.90;;;;;;5113842;28;19947;-70
2023/08/21 00:45:08;;;;;;;;;;;25.80;99.90;;;;;;5113557;28;19947;-71
2023/08/21 00:47:34;;;;;;;;;;;25.80;99.90;;;;;;5114008;28;19961;-71
2023/08/21 00:50:00;;;;;;;;;;;25.70;99.90;;;;;;5095266;28;19914;-71
2023/08/21 00:52:26;;;;;;;;;;;25.70;99.90;;;;;;5113771;28;19935;-71
2023/08/21 00:54:52;;;;;;;;;;;25.80;99.90;;;;;;5113462;28;19915;-70
2023/08/21 00:57:19;;;;;;;;;;;25.80;99.90;;;;;;5113408;28;19915;-70
2023/08/21 00:59:45;;;;;;;;;;;25.70;99.90;;;;;;5113258;28;19915;-69
2023/08/21 01:02:11;;;;;;;;;;;25.80;99.90;;;;;;5113933;28;19908;-70
2023/08/21 01:04:37;;;;;;;;;;;25.80;99.90;;;;;;5113330;28;19945;-70
2023/08/21 01:07:09;;;;;;;;;;;25.80;99.90;;;;;;5113982;28;19914;-70
2023/08/21 01:09:50;;;;;;;;;;;25.80;99.90;;;;;;5095048;28;19955;-70
2023/08/21 01:12:16;;;;;;;;;;;25.70;99.90;;;;;;5116237;28;19908;-70
2023/08/21 01:14:44;;;;;;;;;;;25.70;99.90;;;;;;5117181;28;19937;-70
2023/08/21 01:17:12;;;;;;;;;;;25.70;99.90;;;;;;5116855;28;20311;-70
2023/08/21 01:19:43;;;;;;;;;;;25.70;99.90;;;;;;5098387;28;19914;-70
2023/08/21 01:22:09;;;;;;;;;;;25.60;99.90;;;;;;5098443;28;20359;-70
2023/08/21 01:24:35;;;;;;;;;;;25.60;99.90;;;;;;5116698;28;19908;-70
2023/08/21 01:27:02;;;;;;;;;;;25.70;99.90;;;;;;5116642;28;19943;-70
2023/08/21 01:29:27;;;;;;;;;;;25.60;99.90;;;;;;5116355;28;19931;-71
2023/08/21 01:32:05;;;;;;;;;;;25.60;99.90;;;;;;5117147;28;20294;-71
2023/08/21 01:34:33;;;;;;;;;;;25.70;99.90;;;;;;5098068;28;19926;-71
2023/08/21 01:36:59;;;;;;;;;;;25.70;99.90;;;;;;5116749;28;19916;-70
2023/08/21 01:39:25;;;;;;;;;;;25.70;99.90;;;;;;5116654;28;19911;-71
2023/08/21 01:41:51;;;;;;;;;;;25.70;99.90;;;;;;5116976;28;19930;-70
2023/08/21 01:44:17;;;;;;;;;;;25.70;99.90;;;;;;5116428;28;20426;-70
2023/08/21 01:46:43;;;;;;;;;;;25.70;99.90;;;;;;5116345;28;19908;-70
2023/08/21 01:49:09;;;;;;;;;;;25.80;99.90;;;;;;5116195;28;20082;-70
2023/08/21 01:51:35;;;;;;;;;;;25.80;99.90;;;;;;5097922;28;19915;-70
2023/08/21 01:54:01;;;;;;;;;;;25.70;99.90;;;;;;5116121;28;20000;-70
2023/08/21 01:56:26;;;;;;;;;;;25.70;99.90;;;;;;5116593;28;19916;-70
2023/08/21 01:58:52;;;;;;;;;;;25.70;99.90;;;;;;5115877;28;20010;-70
2023/08/21 02:01:18;;;;;;;;;;;25.70;99.90;;;;;;5116085;28;19908;-70
2023/08/21 02:03:45;;;;;;;;;;;25.70;99.90;;;;;;5097635;28;19907;-70
2023/08/21 02:06:11;;;;;;;;;;;25.60;99.90;;;;;;5116132;28;20007;-70
2023/08/21 02:08:37;;;;;;;;;;;25.60;99.90;;;;;;5115918;28;19935;-71
2023/08/21 02:11:03;;;;;;;;;;;25.50;99.90;;;;;;5116460;28;20264;-70
2023/08/21 02:13:29;;;;;;;;;;;25.40;99.90;;;;;;5116088;28;19961;-70
2023/08/21 02:15:54;;;;;;;;;;;25.30;99.90;;;;;;5097228;28;19986;-70
2023/08/21 02:18:20;;;;;;;;;;;25.40;99.90;;;;;;5097339;28;20344;-70
2023/08/21 02:20:49;;;;;;;;;;;25.30;99.90;;;;;;5116187;28;19915;-70
2023/08/21 02:23:15;;;;;;;;;;;25.30;99.90;;;;;;5115140;28;19914;-71
2023/08/21 02:25:42;;;;;;;;;;;25.30;99.90;;;;;;5097148;28;20338;-71
2023/08/21 02:28:08;;;;;;;;;;;25.30;99.90;;;;;;5115619;28;19908;-71
2023/08/21 02:30:34;;;;;;;;;;;25.30;99.90;;;;;;5115420;28;19908;-69
2023/08/21 02:32:59;;;;;;;;;;;25.30;99.90;;;;;;5115533;28;19911;-71
2023/08/21 02:35:25;;;;;;;;;;;25.30;99.90;;;;;;5115252;28;19972;-70
2023/08/21 02:37:51;;;;;;;;;;;25.40;99.90;;;;;;5115886;28;20351;-70
2023/08/21 02:40:17;;;;;;;;;;;25.50;99.90;;;;;;5115628;28;19907;-69
2023/08/21 02:42:43;;;;;;;;;;;25.40;99.90;;;;;;5115393;28;19907;-70
2023/08/21 02:45:09;;;;;;;;;;;25.40;99.90;;;;;;5114934;28;20002;-70
2023/08/21 02:47:38;;;;;;;;;;;25.50;99.90;;;;;;5115455;28;19961;-69
2023/08/21 02:50:05;;;;;;;;;;;25.40;99.90;;;;;;5115047;28;19915;-71
2023/08/21 02:52:31;;;;;;;;;;;25.40;99.90;;;;;;5115055;28;19943;-69
2023/08/21 02:54:57;;;;;;;;;;;25.40;99.90;;;;;;5115049;28;19953;-70
2023/08/21 02:57:24;;;;;;;;;;;25.40;99.90;;;;;;5115515;28;19916;-70
2023/08/21 02:59:50;;;;;;;;;;;25.40;99.90;;;;;;5116858;28;19955;-69
2023/08/21 03:02:16;;;;;;;;;;;25.40;99.90;;;;;;5115681;28;19930;-70
2023/08/21 03:04:42;;;;;;;;;;;25.50;99.90;;;;;;5114870;28;19907;-69
2023/08/21 03:07:08;;;;;;;;;;;25.40;99.90;;;;;;5115585;28;19908;-71
2023/08/21 03:09:34;;;;;;;;;;;25.50;99.90;;;;;;5114756;28;19915;-70
2023/08/21 03:12:00;;;;;;;;;;;25.50;99.90;;;;;;5096442;28;19916;-70
2023/08/21 03:14:26;;;;;;;;;;;25.50;99.90;;;;;;5114553;28;19958;-69
2023/08/21 03:16:53;;;;;;;;;;;25.50;99.90;;;;;;5114802;28;19980;-71
2023/08/21 03:19:18;;;;;;;;;;;25.50;99.90;;;;;;5096301;28;20262;-69
2023/08/21 03:21:44;;;;;;;;;;;25.50;99.90;;;;;;5114500;28;19911;-70
2023/08/21 03:24:10;;;;;;;;;;;25.30;99.90;;;;;;5115105;28;19908;-70
2023/08/21 03:26:36;;;;;;;;;;;25.30;99.90;;;;;;5096129;28;19912;-70
2023/08/21 03:29:02;;;;;;;;;;;25.30;99.90;;;;;;5114262;28;19915;-71
2023/08/21 03:31:30;;;;;;;;;;;25.30;99.90;;;;;;5114700;28;19907;-70
2023/08/21 03:33:56;;;;;;;;;;;25.20;99.90;;;;;;5113375;28;19916;-70
2023/08/21 03:36:30;;;;;;;;;;;25.30;99.90;;;;;;5114266;28;19916;-70
2023/08/21 03:38:59;;;;;;;;;;;25.30;99.90;;;;;;5114231;28;19912;-70
2023/08/21 03:41:25;;;;;;;;;;;25.30;99.90;;;;;;5114773;28;19920;-69
2023/08/21 03:43:51;;;;;;;;;;;25.30;99.90;;;;;;5114027;28;19908;-70
2023/08/21 03:46:16;;;;;;;;;;;25.20;99.90;;;;;;5114479;28;19915;-69
2023/08/21 03:48:42;;;;;;;;;;;25.20;99.90;;;;;;5114171;28;20359;-70
2023/08/21 03:51:09;;;;;;;;;;;25.20;99.90;;;;;;5095803;28;19908;-70
2023/08/21 03:53:34;;;;;;;;;;;25.20;99.90;;;;;;5114076;28;19907;-70
2023/08/21 03:56:00;;;;;;;;;;;25.30;99.90;;;;;;5113990;28;20240;-69
2023/08/21 03:58:26;;;;;;;;;;;25.30;99.90;;;;;;5114524;28;19908;-70
2023/08/21 04:00:52;;;;;;;;;;;25.30;99.90;;;;;;5113838;28;19907;-71
2023/08/21 04:03:18;;;;;;;;;;;25.20;99.90;;;;;;5113982;28;19908;-70
2023/08/21 04:05:44;;;;;;;;;;;25.20;99.90;;;;;;5114300;28;19908;-70
2023/08/21 04:08:10;;;;;;;;;;;25.20;99.90;;;;;;5113934;28;20006;-70
2023/08/21 04:10:36;;;;;;;;;;;25.20;99.90;;;;;;5113984;28;19908;-70
2023/08/21 04:13:02;;;;;;;;;;;25.20;99.90;;;;;;5095384;28;19933;-70
2023/08/21 04:15:28;;;;;;;;;;;25.30;99.90;;;;;;5113673;28;19954;-70
2023/08/21 04:17:53;;;;;;;;;;;25.30;99.90;;;;;;5114150;28;20256;-70
2023/08/21 04:20:21;;;;;;;;;;;25.30;99.90;;;;;;5114121;28;19912;-70
2023/08/21 04:22:47;;;;;;;;;;;25.30;99.90;;;;;;5113986;28;19908;-70
2023/08/21 04:25:13;;;;;;;;;;;25.30;99.90;;;;;;5113775;28;20348;-70
2023/08/21 04:27:39;;;;;;;;;;;25.20;99.90;;;;;;5114924;28;19908;-71
2023/08/21 04:30:05;;;;;;;;;;;25.10;99.90;;;;;;5114369;28;19947;-71
2023/08/21 04:32:31;;;;;;;;;;;25.00;99.90;;;;;;5114819;28;19908;-70
2023/08/21 04:34:57;;;;;;;;;;;25.00;99.90;;;;;;5113614;28;19927;-71
2023/08/21 04:37:23;;;;;;;;;;;25.00;99.90;;;;;;5113820;28;20367;-70
2023/08/21 04:39:55;;;;;;;;;;;25.00;99.90;;;;;;5114181;28;19908;-71
2023/08/21 04:42:21;;;;;;;;;;;25.10;99.90;;;;;;5113781;28;19908;-70
2023/08/21 04:44:47;;;;;;;;;;;25.00;99.90;;;;;;5114208;28;19994;-70
2023/08/21 04:47:20;;;;;;;;;;;25.10;99.90;;;;;;5118021;28;19953;-71
2023/08/21 04:49:46;;;;;;;;;;;25.00;99.90;;;;;;5118038;28;20380;-70
2023/08/21 04:52:12;;;;;;;;;;;25.10;99.90;;;;;;5099292;28;19908;-71
2023/08/21 04:54:37;;;;;;;;;;;25.10;99.90;;;;;;5117895;28;19908;-70
2023/08/21 04:57:03;;;;;;;;;;;25.20;99.90;;;;;;5117160;28;19916;-70
2023/08/21 04:59:29;;;;;;;;;;;25.20;99.90;;;;;;5117147;28;19907;-70
2023/08/21 05:01:55;;;;;;;;;;;25.30;99.90;;;;;;5117654;28;19915;-71
2023/08/21 05:04:20;;;;;;;;;;;25.40;99.90;;;;;;5116990;28;19994;-70
2023/08/21 05:06:46;;;;;;;;;;;25.30;99.90;;;;;;5116991;28;19953;-71
2023/08/21 05:09:12;;;;;;;;;;;25.40;99.90;;;;;;5117049;28;20197;-71
2023/08/21 05:11:38;;;;;;;;;;;25.40;99.90;;;;;;5117017;28;19988;-71
2023/08/21 05:14:04;;;;;;;;;;;25.60;99.90;;;;;;5116900;28;20369;-71
2023/08/21 05:16:29;;;;;;;;;;;25.80;99.90;;;;;;5117383;28;19916;-71
2023/08/21 05:18:55;;;;;;;;;;;26.10;99.90;;;;;;5116775;28;19954;-71
2023/08/21 05:21:21;;;;;;;;;;;26.50;99.90;;;;;;5116772;28;19908;-70
2023/08/21 05:23:47;;;;;;;;;;;26.80;99.90;;;;;;5116347;28;19908;-71
2023/08/21 05:26:13;;;;;;;;;;;27.30;99.90;;;;;;5116523;28;19954;-72
2023/08/21 05:28:38;;;;;;;;;;;27.50;99.90;;;;;;5117027;28;19914;-72
2023/08/21 05:31:04;;;;;;;;;;;27.60;99.90;;;;;;5116325;28;20363;-72
2023/08/21 05:33:30;;;;;;;;;;;28.30;99.90;;;;;;5116648;28;19922;-72
2023/08/21 05:35:59;;;;;;;;;;;29.10;99.90;;;;;;5116297;28;19916;-72
2023/08/21 05:38:25;;;;;;;;;;;29.40;99.90;;;;;;5116641;28;19915;-71
2023/08/21 05:40:50;;;;;;;;;;;29.10;99.90;;;;;;5116161;28;19911;-71
2023/08/21 05:43:17;;;;;;;;;;;29.20;99.90;;;;;;5116083;28;19907;-71
2023/08/21 05:45:42;;;;;;;;;;;29.70;99.90;;;;;;5115957;28;19908;-72
2023/08/21 05:48:08;;;;;;;;;;;30.30;99.90;;;;;;5097537;28;19930;-71
2023/08/21 05:50:36;;;;;;;;;;;30.90;99.90;;;;;;5116557;28;19907;-72
2023/08/21 05:53:05;;;;;;;;;;;31.50;99.90;;;;;;5116133;28;19908;-71
2023/08/21 05:55:31;;;;;;;;;;;31.50;99.90;;;;;;5115868;28;20256;-73
2023/08/21 05:57:57;;;;;;;;;;;31.50;99.90;;;;;;5117147;28;20352;-72
2023/08/21 06:00:23;;;;;;;;;;;31.90;99.90;;;;;;5117479;28;19911;-72
2023/08/21 06:02:49;;;;;;;;;;;31.90;99.90;;;;;;5116231;28;19908;-72
2023/08/21 06:05:14;;;;;;;;;;;32.50;99.90;;;;;;5115395;28;19958;-72
2023/08/21 06:07:41;;;;;;;;;;;32.40;99.90;;;;;;5097244;28;19939;-71
2023/08/21 06:10:08;;;;;;;;;;;32.20;99.90;;;;;;5115519;28;19908;-72
2023/08/21 06:12:34;;;;;;;;;;;32.80;99.90;;;;;;5115617;28;19918;-72
2023/08/21 06:14:59;;;;;;;;;;;33.50;99.90;;;;;;5115606;28;19999;-72
2023/08/21 06:17:27;;;;;;;;;;;33.60;99.90;;;;;;5115356;28;20003;-72
2023/08/21 06:19:52;;;;;;;;;;;33.70;99.90;;;;;;5115329;28;19952;-72
2023/08/21 06:22:19;;;;;;;;;;;34.00;99.90;;;;;;5115819;28;19994;-73
2023/08/21 06:24:45;;;;;;;;;;;34.60;99.90;;;;;;5096728;28;19965;-72
2023/08/21 06:27:10;;;;;;;;;;;34.70;99.90;;;;;;5096906;28;19912;-72
2023/08/21 06:29:37;;;;;;;;;;;35.10;99.90;;;;;;5115435;28;19919;-72
2023/08/21 06:32:03;;;;;;;;;;;35.00;99.90;;;;;;5115411;28;19915;-72
2023/08/21 06:34:29;;;;;;;;;;;35.60;99.90;;;;;;5114892;28;20291;-71
2023/08/21 06:36:55;;;;;;;;;;;35.80;99.90;;;;;;5115048;28;20282;-73
2023/08/21 06:39:21;;;;;;;;;;;35.00;99.90;;;;;;5114895;28;20003;-72
2023/08/21 06:41:47;;;;;;;;;;;35.30;99.90;;;;;;5114991;28;19908;-71
2023/08/21 06:44:13;;;;;;;;;;;35.50;99.90;;;;;;5115242;28;19908;-72
2023/08/21 06:46:39;;;;;;;;;;;35.80;99.90;;;;;;5096482;28;19915;-72
2023/08/21 06:49:04;;;;;;;;;;;36.10;99.90;;;;;;5115209;28;19908;-72
2023/08/21 06:51:30;;;;;;;;;;;36.60;99.90;;;;;;5115164;28;19912;-71
2023/08/21 06:53:56;;;;;;;;;;;36.80;99.90;;;;;;5114783;28;19912;-72
2023/08/21 06:56:22;;;;;;;;;;;37.50;99.90;;;;;;5115198;28;19969;-72
2023/08/21 06:58:48;;;;;;;;;;;38.20;99.60;;;;;;5114597;28;19919;-72
2023/08/21 07:01:14;;;;;;;;;;;38.40;99.10;;;;;;5096077;28;19957;-71
2023/08/21 07:03:39;;;;;;;;;;;38.10;98.70;;;;;;5114600;28;19914;-71
2023/08/21 07:06:06;;;;;;;;;;;37.80;98.60;;;;;;5114459;28;19962;-72
2023/08/21 07:08:32;;;;;;;;;;;38.10;98.40;;;;;;5114429;28;20282;-72
2023/08/21 07:10:57;;;;;;;;;;;38.00;98.20;;;;;;5114789;28;19908;-70
2023/08/21 07:13:23;;;;;;;;;;;38.50;97.80;;;;;;5114518;28;19915;-72
2023/08/21 07:15:52;;;;;;;;;;;38.80;96.40;;;;;;5114094;28;20348;-71
2023/08/21 07:18:18;;;;;;;;;;;36.70;97.10;;;;;;5114289;28;19907;-71
2023/08/21 07:20:44;;;;;;;;;;;36.40;97.70;;;;;;5114673;28;20006;-71
2023/08/21 07:23:10;;;;;;;;;;;36.40;97.40;;;;;;5114090;28;19911;-71
2023/08/21 07:25:36;;;;;;;;;;;36.50;97.60;;;;;;5114268;28;20016;-71
2023/08/21 07:28:02;;;;;;;;;;;36.80;97.50;;;;;;5114425;28;20032;-71
2023/08/21 07:30:28;;;;;;;;;;;36.70;97.80;;;;;;5115044;28;20284;-71
2023/08/21 07:32:54;;;;;;;;;;;36.90;96.80;;;;;;5114349;28;19998;-71
2023/08/21 07:35:20;;;;;;;;;;;36.70;96.70;;;;;;5114042;28;19927;-69
2023/08/21 07:37:46;;;;;;;;;;;37.20;96.30;;;;;;5113966;28;20198;-71
2023/08/21 07:40:14;;;;;;;;;;;36.30;96.60;;;;;;5095218;28;20413;-71
2023/08/21 07:42:40;;;;;;;;;;;36.10;95.80;;;;;;5113998;28;20395;-72
2023/08/21 07:45:06;;;;;;;;;;;36.30;96.30;;;;;;5113695;28;19914;-72
2023/08/21 07:47:32;;;;;;;;;;;35.90;96.00;;;;;;5114412;28;19908;-72
2023/08/21 07:49:58;;;;;;;;;;;35.10;96.30;;;;;;5113788;28;19952;-71
2023/08/21 07:52:24;;;;;;;;;;;34.80;96.30;;;;;;5113768;28;19928;-69
2023/08/21 07:54:53;;;;;;;;;;;34.10;96.90;;;;;;5113885;28;19918;-72
2023/08/21 07:57:19;;;;;;;;;;;34.10;97.10;;;;;;5113713;28;19916;-72
2023/08/21 07:59:45;;;;;;;;;;;34.00;97.50;;;;;;5095379;28;19915;-72
2023/08/21 08:02:12;;;;;;;;;;;34.00;97.30;;;;;;5114168;28;19912;-72
2023/08/21 08:04:38;;;;;;;;;;;34.50;97.20;;;;;;5095317;28;20370;-72
2023/08/21 08:07:04;;;;;;;;;;;34.50;96.50;;;;;;5113910;28;19908;-71
2023/08/21 08:09:30;;;;;;;;;;;33.90;97.10;;;;;;5113256;28;20050;-70
2023/08/21 08:11:56;;;;;;;;;;;33.10;98.20;;;;;;5113547;28;19908;-71
2023/08/21 08:14:22;;;;;;;;;;;33.70;97.40;;;;;;5113805;28;19947;-71
2023/08/21 08:16:48;;;;;;;;;;;32.90;98.00;;;;;;5113500;28;19949;-72
2023/08/21 08:19:13;;;;;;;;;;;33.30;97.60;;;;;;5113982;28;19915;-71
2023/08/21 08:21:39;;;;;;;;;;;34.10;97.00;;;;;;5098476;28;20336;-72
2023/08/21 08:24:05;;;;;;;;;;;34.40;96.80;;;;;;5117473;28;19915;-71
2023/08/21 08:26:31;;;;;;;;;;;34.40;96.40;;;;;;5117733;28;19920;-71
2023/08/21 08:28:57;;;;;;;;;;;33.60;96.60;;;;;;5098943;28;19953;-71
2023/08/21 08:31:25;;;;;;;;;;;33.90;97.10;;;;;;5117385;28;19960;-72
2023/08/21 08:33:53;;;;;;;;;;;34.70;96.20;;;;;;5097907;28;20404;-71
2023/08/21 08:36:18;;;;;;;;;;;34.60;96.40;;;;;;5117263;28;20261;-72
2023/08/21 08:38:44;;;;;;;;;;;34.70;96.20;;;;;;5117267;28;19907;-71
2023/08/21 08:41:12;;;;;;;;;;;35.20;96.10;;;;;;5116980;28;19965;-72
2023/08/21 08:43:40;;;;;;;;;;;35.90;96.50;;;;;;5117007;28;20002;-72
2023/08/21 08:46:06;;;;;;;;;;;36.10;96.50;;;;;;5116938;28;19915;-72
2023/08/21 08:48:32;;;;;;;;;;;36.50;96.50;;;;;;5117094;28;19930;-72
2023/08/21 08:50:58;;;;;;;;;;;36.40;96.00;;;;;;5117659;28;20204;-72
2023/08/21 08:53:24;;;;;;;;;;;36.60;95.80;;;;;;5116987;28;19923;-72
2023/08/21 08:55:50;;;;;;;;;;;36.30;95.90;;;;;;5098534;28;19911;-72
2023/08/21 08:58:16;;;;;;;;;;;36.30;96.00;;;;;;5117056;28;19918;-71
2023/08/21 09:00:42;;;;;;;;;;;35.70;96.30;;;;;;5099467;28;20335;-72
2023/08/21 09:03:10;;;;;;;;;;;35.50;96.70;;;;;;5117144;28;19914;-72
2023/08/21 09:05:36;;;;;;;;;;;35.60;96.60;;;;;;5116764;28;19915;-72
2023/08/21 09:08:02;;;;;;;;;;;35.80;96.80;;;;;;5116855;28;20390;-72
2023/08/21 09:10:28;;;;;;;;;;;36.00;96.40;;;;;;5117435;28;20023;-71
2023/08/21 09:12:57;;;;;;;;;;;36.20;96.00;;;;;;5117108;28;20031;-70
2023/08/21 09:15:27;;;;;;;;;;;36.00;95.70;;;;;;5116529;28;19908;-71
2023/08/21 09:17:54;;;;;;;;;;;35.40;96.00;;;;;;5116954;28;19915;-71
2023/08/21 09:20:20;;;;;;;;;;;35.90;96.00;;;;;;5116382;28;19916;-70
2023/08/21 09:22:53;;;;;;;;;;;35.90;95.50;;;;;;5116666;28;19912;-70
2023/08/21 09:25:19;;;;;;;;;;;35.60;95.90;;;;;;5116768;28;19908;-71
2023/08/21 09:27:45;;;;;;;;;;;35.70;96.00;;;;;;5116376;28;19961;-72
2023/08/21 09:30:14;;;;;;;;;;;36.10;95.50;;;;;;5116744;28;19916;-71
2023/08/21 09:33:00;;;;;;;;;;;36.10;95.70;;;;;;5115366;28;20395;-72
2023/08/21 09:35:26;;;;;;;;;;;36.30;95.50;;;;;;5116180;28;19920;-72
2023/08/21 09:37:55;;;;;;;;;;;36.10;95.70;;;;;;5098233;28;19948;-72
2023/08/21 09:40:21;;;;;;;;;;;36.20;95.40;;;;;;5116065;28;19912;-71
2023/08/21 09:42:54;;;;;;;;;;;36.10;95.40;;;;;;5116247;28;19995;-71
2023/08/21 09:45:21;;;;;;;;;;;36.20;95.40;;;;;;5115845;28;19977;-71
2023/08/21 09:47:47;;;;;;;;;;;35.90;95.30;;;;;;5097622;28;20281;-73
2023/08/21 09:50:13;;;;;;;;;;;36.00;95.30;;;;;;5097598;28;20007;-71
2023/08/21 09:52:39;;;;;;;;;;;35.80;95.40;;;;;;5115966;28;19955;-71
2023/08/21 09:55:05;;;;;;;;;;;35.50;95.30;;;;;;5116172;28;19915;-72
2023/08/21 09:57:31;;;;;;;;;;;35.60;95.60;;;;;;5116504;28;20014;-72
2023/08/21 09:59:58;;;;;;;;;;;35.70;95.40;;;;;;5097736;28;19911;-71
2023/08/21 10:02:26;;;;;;;;;;;35.90;95.50;;;;;;5115910;28;19907;-71
2023/08/21 10:04:52;;;;;;;;;;;36.10;95.30;;;;;;5115770;28;19908;-71
2023/08/21 10:07:26;;;;;;;;;;;36.30;94.90;;;;;;5116260;28;19927;-72
2023/08/21 10:09:52;;;;;;;;;;;36.10;94.90;;;;;;5115934;28;19912;-71
2023/08/21 10:12:19;;;;;;;;;;;36.00;94.90;;;;;;5115655;28;20373;-71
2023/08/21 10:14:45;;;;;;;;;;;36.10;94.60;;;;;;5097067;28;19908;-71
2023/08/21 10:17:10;;;;;;;;;;;35.70;95.00;;;;;;5096867;28;20004;-71
2023/08/21 10:19:36;;;;;;;;;;;35.30;95.20;;;;;;5115432;28;19908;-71
2023/08/21 10:22:03;;;;;;;;;;;35.30;95.30;;;;;;5115399;28;19977;-71
2023/08/21 10:24:33;;;;;;;;;;;35.00;95.30;;;;;;5097143;28;20333;-70
2023/08/21 10:26:59;;;;;;;;;;;35.40;95.30;;;;;;5116026;28;19907;-72
2023/08/21 10:29:25;;;;;;;;;;;35.80;95.20;;;;;;5116320;28;19908;-71
2023/08/21 10:32:04;;;;;;;;;;;35.50;95.10;;;;;;5115236;28;19980;-71
2023/08/21 10:34:35;;;;;;;;;;;35.40;95.30;;;;;;5115087;28;19919;-71
2023/08/21 10:37:00;;;;;;;;;;;35.30;95.30;;;;;;5096642;28;19916;-71
2023/08/21 10:39:29;;;;;;;;;;;35.60;95.10;;;;;;5096722;28;19952;-72
2023/08/21 10:42:09;;;;;;;;;;;35.60;94.90;;;;;;5115049;28;19915;-71
2023/08/21 10:45:05;;;;;;;;;;;35.50;95.20;;;;;;5096187;28;19956;-71
2023/08/21 10:47:31;;;;;;;;;;;35.50;95.10;;;;;;5114112;28;19908;-71
2023/08/21 10:49:58;;;;;;;;;;;35.40;95.20;;;;;;5114894;28;19919;-71
2023/08/21 10:52:38;;;;;;;;;;;35.50;95.00;;;;;;5096480;28;20284;-71
2023/08/21 10:55:04;;;;;;;;;;;35.60;94.90;;;;;;5114844;28;19907;-72
2023/08/21 10:57:31;;;;;;;;;;;35.50;94.90;;;;;;5096290;28;19934;-73
2023/08/21 10:59:57;;;;;;;;;;;35.70;94.80;;;;;;5114836;28;19907;-71
2023/08/21 11:02:24;;;;;;;;;;;35.20;94.90;;;;;;5114772;28;20003;-72
2023/08/21 11:04:50;;;;;;;;;;;34.90;95.10;;;;;;5114664;28;20360;-72
2023/08/21 11:07:16;;;;;;;;;;;34.80;95.20;;;;;;5114697;28;19998;-71
2023/08/21 11:09:42;;;;;;;;;;;34.90;95.20;;;;;;5114667;28;19947;-71
2023/08/21 11:12:08;;;;;;;;;;;34.90;95.20;;;;;;5114613;28;19930;-72
2023/08/21 11:14:37;;;;;;;;;;;35.10;95.00;;;;;;5114290;28;19908;-71
2023/08/21 11:17:03;;;;;;;;;;;35.00;95.10;;;;;;5114345;28;20249;-71
2023/08/21 11:19:32;;;;;;;;;;;35.10;95.00;;;;;;5096093;28;20038;-71
2023/08/21 11:22:00;;;;;;;;;;;35.30;94.90;;;;;;5115116;28;20391;-71
2023/08/21 11:24:38;;;;;;;;;;;35.30;94.70;;;;;;5114316;28;19915;-72
2023/08/21 11:27:04;;;;;;;;;;;35.40;94.80;;;;;;5114270;28;19998;-70
2023/08/21 11:29:40;;;;;;;;;;;35.20;94.50;;;;;;5114114;28;19957;-71
2023/08/21 11:32:09;;;;;;;;;;;35.30;94.60;;;;;;5114084;28;19912;-71
2023/08/21 11:34:36;;;;;;;;;;;35.60;93.60;;;;;;5095766;28;19920;-71
2023/08/21 11:37:02;;;;;;;;;;;35.40;93.40;;;;;;5114426;28;19927;-71
2023/08/21 11:39:38;;;;;;;;;;;35.10;93.70;;;;;;5114126;28;19908;-72
2023/08/21 11:42:08;;;;;;;;;;;34.10;94.20;;;;;;5114145;28;19918;-70
2023/08/21 11:44:39;;;;;;;;;;;33.80;94.90;;;;;;5113962;28;19923;-70
2023/08/21 11:47:05;;;;;;;;;;;33.80;94.80;;;;;;5113767;28;19908;-71
2023/08/21 11:49:31;;;;;;;;;;;33.30;95.40;;;;;;5113904;28;20003;-71
2023/08/21 11:51:56;;;;;;;;;;;33.20;95.80;;;;;;5113743;28;19960;-72
2023/08/21 11:54:22;;;;;;;;;;;33.20;95.90;;;;;;5113357;28;19908;-72
2023/08/21 11:56:48;;;;;;;;;;;33.20;95.90;;;;;;5113641;28;19915;-72
2023/08/21 11:59:23;;;;;;;;;;;33.10;95.90;;;;;;5097574;28;19915;-72
2023/08/21 12:01:52;;;;;;;;;;;33.00;96.30;;;;;;5095383;28;19908;-72
2023/08/21 12:04:18;;;;;;;;;;;32.80;96.90;;;;;;5114081;28;19907;-72
2023/08/21 12:06:46;;;;;;;;;;;32.20;97.30;;;;;;5113567;28;20022;-72
2023/08/21 12:09:12;;;;;;;;;;;32.30;97.30;;;;;;5113729;28;19907;-71
2023/08/21 12:11:38;;;;;;;;;;;31.80;97.70;;;;;;5113963;28;19908;-72
2023/08/21 12:14:05;;;;;;;;;;;31.20;98.20;;;;;;5113614;28;19908;-70
2023/08/21 12:16:30;;;;;;;;;;;29.90;99.90;;;;;;5094953;28;19918;-72
2023/08/21 12:18:57;;;;;;;;;;;29.00;99.90;;;;;;5113559;28;19999;-70
2023/08/21 12:21:23;;;;;;;;;;;28.50;99.90;;;;;;5113384;28;19994;-69
2023/08/21 12:23:49;;;;;;;;;;;27.80;99.90;;;;;;5113476;28;20332;-69
2023/08/21 12:26:21;;;;;;;;;;;26.40;99.90;;;;;;5095215;28;20344;-68
2023/08/21 12:28:50;;;;;;;;;;;25.70;99.90;;;;;;5113608;28;19908;-69
2023/08/21 12:31:15;;;;;;;;;;;25.80;99.90;;;;;;5095007;28;19954;-68
2023/08/21 12:33:41;;;;;;;;;;;26.20;99.90;;;;;;5113140;28;19947;-71
2023/08/21 12:36:10;;;;;;;;;;;26.60;99.90;;;;;;5113414;28;20013;-69
2023/08/21 12:38:36;;;;;;;;;;;26.50;99.90;;;;;;5113272;28;20368;-69
2023/08/21 12:41:02;;;;;;;;;;;26.60;99.90;;;;;;5094942;28;19964;-70
2023/08/21 12:43:28;;;;;;;;;;;26.80;99.90;;;;;;5095569;28;20264;-70
2023/08/21 12:45:54;;;;;;;;;;;26.80;99.90;;;;;;5113671;28;20291;-70
2023/08/21 12:48:19;;;;;;;;;;;26.90;99.90;;;;;;5113348;28;20377;-69
2023/08/21 12:50:54;;;;;;;;;;;26.80;99.90;;;;;;5094990;28;19988;-70
2023/08/21 12:53:20;;;;;;;;;;;26.70;99.90;;;;;;5112993;28;19914;-69
2023/08/21 12:55:46;;;;;;;;;;;26.50;99.90;;;;;;5113423;28;19908;-69
2023/08/21 12:58:13;;;;;;;;;;;26.30;99.90;;;;;;5094867;28;20393;-70
2023/08/21 13:00:39;;;;;;;;;;;26.20;99.90;;;;;;5113000;28;19999;-70
2023/08/21 13:03:05;;;;;;;;;;;26.10;99.90;;;;;;5113332;28;19947;-70
2023/08/21 13:05:31;;;;;;;;;;;26.20;99.90;;;;;;5113212;28;19915;-70
2023/08/21 13:07:56;;;;;;;;;;;26.10;99.90;;;;;;5116598;28;20385;-70
2023/08/21 13:10:22;;;;;;;;;;;26.00;99.90;;;;;;5098298;28;19907;-70
2023/08/21 13:12:49;;;;;;;;;;;25.90;99.90;;;;;;5117584;28;20026;-70
2023/08/21 13:15:15;;;;;;;;;;;26.00;99.90;;;;;;5098465;28;19908;-69
2023/08/21 13:17:43;;;;;;;;;;;26.20;99.90;;;;;;5116403;28;19919;-71
2023/08/21 13:20:10;;;;;;;;;;;26.20;99.90;;;;;;5117052;28;19960;-71
2023/08/21 13:22:47;;;;;;;;;;;26.10;99.90;;;;;;5116381;28;19915;-71
2023/08/21 13:25:12;;;;;;;;;;;26.10;99.90;;;;;;5116610;28;19908;-71
2023/08/21 13:27:38;;;;;;;;;;;25.60;99.90;;;;;;5116910;28;19907;-70
2023/08/21 13:30:05;;;;;;;;;;;25.50;99.90;;;;;;5116130;28;19994;-71
2023/08/21 13:32:31;;;;;;;;;;;25.60;99.90;;;;;;5116244;28;20355;-71
2023/08/21 13:34:57;;;;;;;;;;;25.40;99.90;;;;;;5115957;28;19919;-71
2023/08/21 13:37:23;;;;;;;;;;;25.50;99.90;;;;;;5116194;28;19923;-70
2023/08/21 13:39:49;;;;;;;;;;;25.40;99.90;;;;;;5116276;28;19915;-70
2023/08/21 13:42:15;;;;;;;;;;;25.40;99.90;;;;;;5116104;28;19908;-71
2023/08/21 13:44:40;;;;;;;;;;;25.30;99.90;;;;;;5116735;28;19908;-71
2023/08/21 13:47:06;;;;;;;;;;;25.30;99.90;;;;;;5097651;28;19915;-71
2023/08/21 13:49:32;;;;;;;;;;;25.20;99.90;;;;;;5098482;28;20006;-71
2023/08/21 13:51:58;;;;;;;;;;;24.80;99.90;;;;;;5116001;28;19912;-70
2023/08/21 13:54:23;;;;;;;;;;;24.60;99.90;;;;;;5116286;28;19915;-70
2023/08/21 13:56:49;;;;;;;;;;;24.60;99.90;;;;;;5116132;28;20002;-71
2023/08/21 13:59:15;;;;;;;;;;;24.50;99.90;;;;;;5115917;28;19915;-71
2023/08/21 14:01:41;;;;;;;;;;;24.00;99.90;;;;;;5115849;28;19915;-71
2023/08/21 14:04:07;;;;;;;;;;;23.80;99.90;;;;;;5097351;28;19908;-71
2023/08/21 14:06:33;;;;;;;;;;;23.50;99.90;;;;;;5115751;28;19915;-70
2023/08/21 14:08:59;;;;;;;;;;;23.00;99.90;;;;;;5116195;28;19994;-70
2023/08/21 14:11:25;;;;;;;;;;;22.60;99.90;;;;;;5115458;28;19954;-70
2023/08/21 14:13:50;;;;;;;;;;;22.50;99.90;;;;;;5116008;28;19994;-70